Time;durP1;ratioP1;P1;durP2;ratioP2;P2;SDS_P1;SDS_P2;PMS_P1;PMS_P2;Temp;Humidity;BMP_temperature;BMP_pressure;BME280_temperature;BME280_humidity;BME280_pressure;Samples;Min_cycle;Max_cycle;Signal;HPM_P1;HPM_P2
2022/12/03 00:01:01;;;;;;;2.00;1.37;;;;;;;;;;5092274;28;20206;-60
2022/12/03 00:03:29;;;;;;;2.50;2.23;;;;;;;;;;5092233;28;20228;-60
2022/12/03 00:05:56;;;;;;;2.13;2.00;;;;;;;;;;5092115;28;20600;-60
2022/12/03 00:08:23;;;;;;;1.93;1.63;;;;;;;;;;5108698;28;20207;-60
2022/12/03 00:10:50;;;;;;;2.87;0.97;;;;;;;;;;5104531;28;20204;-60
2022/12/03 00:13:17;;;;;;;2.70;2.47;;;;;;;;;;5111696;28;20199;-61
2022/12/03 00:15:44;;;;;;;2.53;2.13;;;;;;;;;;5104007;28;20227;-60
2022/12/03 00:18:13;;;;;;;3.40;1.43;;;;;;;;;;5110689;28;20573;-60
2022/12/03 00:20:40;;;;;;;11.50;3.07;;;;;;;;;;5102861;28;20196;-61
2022/12/03 00:23:07;;;;;;;2.67;1.23;;;;;;;;;;5092188;28;20227;-61
2022/12/03 00:25:34;;;;;;;4.17;2.13;;;;;;;;;;5093323;28;20884;-60
2022/12/03 00:28:01;;;;;;;5.70;3.53;;;;;;;;;;5092001;28;20209;-61
2022/12/03 00:30:28;;;;;;;1.67;1.17;;;;;;;;;;5093323;28;20208;-60
2022/12/03 00:32:55;;;;;;;1.93;1.70;;;;;;;;;;5092737;28;20752;-61
2022/12/03 00:35:23;;;;;;;0.60;0.60;;;;;;;;;;5096154;28;20195;-61
2022/12/03 00:37:51;;;;;;;4.33;2.80;;;;;;;;;;5094001;28;20299;-60
2022/12/03 00:40:18;;;;;;;8.03;3.57;;;;;;;;;;5106875;28;20215;-61
2022/12/03 00:42:45;;;;;;;1.43;0.70;;;;;;;;;;5091656;28;20269;-61
2022/12/03 00:45:12;;;;;;;2.93;2.50;;;;;;;;;;5099376;28;20218;-60
2022/12/03 00:47:40;;;;;;;3.53;1.73;;;;;;;;;;5111071;28;20227;-61
2022/12/03 00:50:07;;;;;;;4.23;2.30;;;;;;;;;;5105931;28;20223;-60
2022/12/03 00:52:36;;;;;;;2.73;1.57;;;;;;;;;;5091462;28;20226;-61
2022/12/03 00:55:03;;;;;;;2.93;1.83;;;;;;;;;;5104619;28;20230;-61
2022/12/03 00:57:30;;;;;;;7.50;2.73;;;;;;;;;;5109743;28;20216;-62
2022/12/03 00:59:57;;;;;;;2.63;1.23;;;;;;;;;;5095756;28;20201;-61
2022/12/03 01:02:24;;;;;;;4.20;2.37;;;;;;;;;;5096551;28;20210;-61
2022/12/03 01:04:51;;;;;;;3.43;2.60;;;;;;;;;;5109947;28;20587;-62
2022/12/03 01:07:18;;;;;;;5.57;3.17;;;;;;;;;;5110909;28;20238;-62
2022/12/03 01:09:47;;;;;;;4.20;2.40;;;;;;;;;;5104980;28;20204;-61
2022/12/03 01:12:14;;;;;;;2.97;1.83;;;;;;;;;;5100662;28;20208;-61
2022/12/03 01:14:41;;;;;;;2.63;1.47;;;;;;;;;;5091117;28;20199;-61
2022/12/03 01:17:08;;;;;;;3.03;2.10;;;;;;;;;;5098159;28;20206;-61
2022/12/03 01:19:35;;;;;;;4.27;2.87;;;;;;;;;;5100970;28;20206;-62
2022/12/03 01:22:02;;;;;;;2.27;1.67;;;;;;;;;;5102572;28;20695;-61
2022/12/03 01:24:29;;;;;;;5.40;1.97;;;;;;;;;;5100144;28;20229;-61
2022/12/03 01:26:58;;;;;;;5.57;3.13;;;;;;;;;;5109190;28;20200;-62
2022/12/03 01:29:25;;;;;;;4.63;3.97;;;;;;;;;;5104592;28;20199;-61
2022/12/03 01:34:37;;;;;;;5.13;2.33;;;;;;;;;;5090674;28;20237;-62
2022/12/03 01:37:04;;;;;;;6.00;3.20;;;;;;;;;;5101739;28;20200;-62
2022/12/03 01:39:31;;;;;;;1.50;1.30;;;;;;;;;;5090139;28;20215;-61
2022/12/03 01:42:00;;;;;;;2.17;2.03;;;;;;;;;;5089925;28;20201;-62
2022/12/03 01:44:28;;;;;;;4.27;2.63;;;;;;;;;;5090377;28;20680;-62
2022/12/03 01:46:56;;;;;;;3.30;2.13;;;;;;;;;;5094371;28;20208;-61
2022/12/03 01:49:25;;;;;;;6.10;3.53;;;;;;;;;;5110648;28;20207;-62
2022/12/03 01:51:53;;;;;;;8.13;3.43;;;;;;;;;;5109925;28;20210;-61
2022/12/03 01:54:21;;;;;;;7.13;3.87;;;;;;;;;;5109725;28;20208;-61
2022/12/03 01:56:49;;;;;;;6.17;3.97;;;;;;;;;;5110046;27;20211;-61
2022/12/03 01:59:19;;;;;;;4.13;3.10;;;;;;;;;;5109827;28;20234;-61
2022/12/03 02:01:46;;;;;;;3.23;2.60;;;;;;;;;;5107911;28;20201;-61
2022/12/03 02:04:14;;;;;;;9.90;4.47;;;;;;;;;;5090191;28;20711;-61
2022/12/03 02:06:41;;;;;;;8.33;4.23;;;;;;;;;;5097717;28;20240;-61
2022/12/03 02:09:10;;;;;;;6.30;3.47;;;;;;;;;;5108934;28;20226;-62
2022/12/03 02:11:39;;;;;;;5.57;2.93;;;;;;;;;;5097451;28;20200;-61
2022/12/03 02:14:08;;;;;;;8.70;4.67;;;;;;;;;;5108735;28;20204;-62
2022/12/03 02:16:37;;;;;;;6.43;3.20;;;;;;;;;;5095782;28;20203;-61
2022/12/03 02:19:05;;;;;;;12.03;4.90;;;;;;;;;;5108665;28;20666;-61
2022/12/03 02:21:35;;;;;;;5.97;2.87;;;;;;;;;;5092966;28;20203;-61
2022/12/03 02:24:07;;;;;;;3.13;1.37;;;;;;;;;;5091216;28;20228;-62
2022/12/03 02:26:35;;;;;;;4.47;2.57;;;;;;;;;;5090042;28;20216;-62
2022/12/03 02:29:02;;;;;;;9.23;3.40;;;;;;;;;;5091131;28;20208;-62
2022/12/03 02:31:30;;;;;;;3.17;2.90;;;;;;;;;;5109258;28;20213;-62
2022/12/03 02:33:57;;;;;;;5.77;4.27;;;;;;;;;;5109699;28;20214;-61
2022/12/03 02:36:24;;;;;;;10.47;4.43;;;;;;;;;;5102445;28;20206;-61
2022/12/03 02:38:51;;;;;;;1.70;1.50;;;;;;;;;;5091956;28;20210;-62
2022/12/03 02:44:02;;;;;;;3.33;2.17;;;;;;;;;;5092564;28;20226;-61
2022/12/03 02:46:29;;;;;;;3.33;2.10;;;;;;;;;;5098743;28;20333;-61
2022/12/03 02:48:56;;;;;;;7.93;3.83;;;;;;;;;;5106176;28;20200;-62
2022/12/03 02:51:23;;;;;;;13.63;4.00;;;;;;;;;;5095260;28;20211;-61
2022/12/03 02:53:51;;;;;;;9.57;4.23;;;;;;;;;;5109184;28;20205;-62
2022/12/03 02:56:20;;;;;;;5.60;2.87;;;;;;;;;;5109260;28;20235;-61
2022/12/03 02:58:48;;;;;;;6.07;3.13;;;;;;;;;;5113931;28;20223;-62
2022/12/03 03:01:17;;;;;;;7.03;2.80;;;;;;;;;;5105338;28;20597;-61
2022/12/03 03:03:45;;;;;;;7.60;3.60;;;;;;;;;;5113348;28;20219;-61
2022/12/03 03:06:12;;;;;;;6.23;3.23;;;;;;;;;;5112931;28;20244;-61
2022/12/03 03:08:40;;;;;;;5.77;2.63;;;;;;;;;;5113369;28;20209;-61
2022/12/03 03:11:07;;;;;;;8.63;3.93;;;;;;;;;;5107788;28;20202;-62
2022/12/03 03:13:35;;;;;;;2.40;1.97;;;;;;;;;;5105503;28;20211;-61
2022/12/03 03:16:02;;;;;;;3.40;2.13;;;;;;;;;;5113489;28;20200;-61
2022/12/03 03:18:31;;;;;;;1.43;1.33;;;;;;;;;;5112207;28;20581;-61
2022/12/03 03:20:58;;;;;;;6.47;2.87;;;;;;;;;;5112801;28;20208;-61
2022/12/03 03:23:25;;;;;;;8.63;3.97;;;;;;;;;;5101682;28;20239;-61
2022/12/03 03:25:55;;;;;;;12.13;4.43;;;;;;;;;;5101544;28;20201;-61
2022/12/03 03:28:22;;;;;;;10.60;3.53;;;;;;;;;;5107707;27;20609;-62
2022/12/03 03:30:49;;;;;;;11.33;3.00;;;;;;;;;;5109360;27;20207;-61
2022/12/03 03:33:16;;;;;;;7.83;4.13;;;;;;;;;;5104316;28;20677;-61
2022/12/03 03:35:46;;;;;;;3.50;1.57;;;;;;;;;;5099079;28;20659;-61
2022/12/03 03:38:13;;;;;;;5.47;3.87;;;;;;;;;;5098105;28;20760;-61
2022/12/03 03:40:41;;;;;;;8.70;3.33;;;;;;;;;;5093008;28;20208;-62
2022/12/03 03:43:09;;;;;;;5.70;3.17;;;;;;;;;;5109122;28;20702;-62
2022/12/03 03:45:36;;;;;;;7.00;3.10;;;;;;;;;;5111427;28;20268;-61
2022/12/03 03:48:03;;;;;;;4.80;2.73;;;;;;;;;;5112470;28;20209;-61
2022/12/03 03:50:30;;;;;;;4.83;2.93;;;;;;;;;;5113507;28;20209;-62
2022/12/03 03:53:00;;;;;;;4.73;2.17;;;;;;;;;;5112222;28;20216;-61
2022/12/03 03:55:27;;;;;;;5.17;3.27;;;;;;;;;;5102467;28;20225;-60
2022/12/03 03:57:55;;;;;;;2.60;2.13;;;;;;;;;;5098317;28;20598;-60
2022/12/03 04:00:22;;;;;;;2.47;0.70;;;;;;;;;;5111159;28;20200;-62
2022/12/03 04:02:49;;;;;;;4.70;2.67;;;;;;;;;;5104706;28;20209;-60
2022/12/03 04:05:17;;;;;;;3.47;1.73;;;;;;;;;;5092541;28;20230;-61
2022/12/03 04:07:44;;;;;;;4.20;3.03;;;;;;;;;;5097680;28;20235;-61
2022/12/03 04:12:59;;;;;;;4.37;2.20;;;;;;;;;;5100362;28;20203;-61
2022/12/03 04:15:26;;;;;;;2.07;1.83;;;;;;;;;;5109186;28;20205;-61
2022/12/03 04:20:34;;;;;;;2.00;1.83;;;;;;;;;;5110256;28;20634;-61
2022/12/03 04:23:00;;;;;;;3.30;1.43;;;;;;;;;;5109706;28;20230;-61
2022/12/03 04:30:58;;;;;;;1.90;1.80;;;;;;;;;;5105320;28;20314;-60
2022/12/03 04:36:10;;;;;;;2.50;2.30;;;;;;;;;;5096012;28;20211;-61
2022/12/03 04:38:37;;;;;;;4.73;2.63;;;;;;;;;;5107133;28;20673;-61
2022/12/03 04:41:06;;;;;;;5.50;3.77;;;;;;;;;;5106061;28;20209;-61
2022/12/03 04:44:31;;;;;;;4.23;2.97;;;;;;;;;;5102877;28;20217;-61
2022/12/03 04:46:21;;;;;;;2.47;1.40;;;;;;;;;;5110707;28;20561;-61
2022/12/03 04:48:48;;;;;;;3.47;1.80;;;;;;;;;;5110886;28;20208;-61
2022/12/03 04:51:15;;;;;;;1.87;1.73;;;;;;;;;;5110995;28;20204;-61
2022/12/03 04:53:42;;;;;;;4.63;2.87;;;;;;;;;;5094179;28;20227;-61
2022/12/03 04:56:10;;;;;;;3.73;2.30;;;;;;;;;;5091607;28;20589;-61
2022/12/03 04:58:37;;;;;;;1.80;1.50;;;;;;;;;;5091186;28;20205;-61
2022/12/03 05:01:04;;;;;;;10.00;3.50;;;;;;;;;;5090625;28;20216;-62
2022/12/03 05:03:31;;;;;;;6.83;3.23;;;;;;;;;;5090871;28;20222;-60
2022/12/03 05:05:59;;;;;;;6.50;3.67;;;;;;;;;;5090126;28;20230;-61
2022/12/03 05:08:26;;;;;;;2.83;1.43;;;;;;;;;;5090484;28;20211;-61
2022/12/03 05:10:53;;;;;;;4.03;2.17;;;;;;;;;;5091036;28;20208;-61
2022/12/03 05:13:21;;;;;;;4.53;2.40;;;;;;;;;;5090880;28;20644;-60
2022/12/03 05:15:48;;;;;;;3.23;2.27;;;;;;;;;;5091188;28;20208;-60
2022/12/03 05:18:15;;;;;;;1.50;0.87;;;;;;;;;;5102448;28;20212;-61
2022/12/03 05:20:41;;;;;;;4.33;1.87;;;;;;;;;;5110586;28;20721;-60
2022/12/03 05:23:09;;;;;;;2.13;1.73;;;;;;;;;;5109236;28;20738;-61
2022/12/03 05:25:36;;;;;;;0.70;0.70;;;;;;;;;;5097816;28;20229;-61
2022/12/03 05:28:03;;;;;;;3.63;2.63;;;;;;;;;;5108770;28;20208;-60
2022/12/03 05:30:31;;;;;;;5.53;2.20;;;;;;;;;;5103706;28;20212;-61
2022/12/03 05:32:59;;;;;;;2.03;1.80;;;;;;;;;;5100473;28;20200;-61
2022/12/03 05:35:26;;;;;;;2.30;1.83;;;;;;;;;;5108733;28;20298;-61
2022/12/03 05:37:53;;;;;;;3.93;3.20;;;;;;;;;;5100962;28;20205;-60
2022/12/03 05:40:20;;;;;;;4.97;2.60;;;;;;;;;;5109498;28;20216;-61
2022/12/03 05:42:52;;;;;;;4.93;1.70;;;;;;;;;;5094981;28;20553;-61
2022/12/03 05:45:19;;;;;;;2.13;1.80;;;;;;;;;;5090435;28;20235;-61
2022/12/03 05:47:48;;;;;;;5.43;3.60;;;;;;;;;;5105303;28;20215;-60
2022/12/03 05:50:15;;;;;;;2.53;2.13;;;;;;;;;;5090139;28;20213;-61
2022/12/03 05:52:42;;;;;;;5.60;3.30;;;;;;;;;;5094359;28;20222;-61
2022/12/03 05:55:10;;;;;;;3.70;2.77;;;;;;;;;;5100499;28;20219;-60
2022/12/03 05:57:37;;;;;;;2.03;1.83;;;;;;;;;;5094969;28;20296;-61
2022/12/03 06:00:06;;;;;;;0.80;0.63;;;;;;;;;;5090672;28;20216;-61
2022/12/03 06:02:33;;;;;;;3.77;2.80;;;;;;;;;;5105559;28;20209;-61
2022/12/03 06:05:01;;;;;;;1.63;1.30;;;;;;;;;;5091612;28;20283;-60
2022/12/03 06:07:28;;;;;;;6.90;2.97;;;;;;;;;;5099123;28;20244;-61
2022/12/03 06:09:55;;;;;;;2.30;1.17;;;;;;;;;;5094290;28;20205;-61
2022/12/03 06:12:22;;;;;;;3.57;1.17;;;;;;;;;;5109486;28;20212;-62
2022/12/03 06:14:49;;;;;;;3.87;1.97;;;;;;;;;;5110766;28;20201;-62
2022/12/03 06:17:17;;;;;;;2.27;1.17;;;;;;;;;;5094702;28;20553;-61
2022/12/03 06:19:44;;;;;;;3.00;2.40;;;;;;;;;;5107852;28;20204;-62
2022/12/03 06:22:12;;;;;;;0.77;0.77;;;;;;;;;;5100101;28;20204;-61
2022/12/03 06:24:39;;;;;;;0.20;0.20;;;;;;;;;;5110073;28;20222;-63
2022/12/03 06:27:06;;;;;;;1.87;1.77;;;;;;;;;;5106997;28;20218;-62
2022/12/03 06:29:33;;;;;;;3.83;1.30;;;;;;;;;;5090236;28;20200;-61
2022/12/03 06:32:01;;;;;;;1.60;1.43;;;;;;;;;;5102982;28;20204;-62
2022/12/03 06:34:28;;;;;;;4.10;2.80;;;;;;;;;;5109693;28;20215;-62
2022/12/03 06:36:55;;;;;;;2.60;2.10;;;;;;;;;;5097693;28;20224;-62
2022/12/03 06:39:23;;;;;;;0.67;0.67;;;;;;;;;;5103437;28;20203;-62
2022/12/03 06:41:51;;;;;;;2.73;2.53;;;;;;;;;;5103352;28;20702;-61
2022/12/03 06:44:18;;;;;;;2.80;2.60;;;;;;;;;;5108990;28;20206;-62
2022/12/03 06:46:45;;;;;;;0.67;0.67;;;;;;;;;;5109936;28;20201;-62
2022/12/03 06:49:12;;;;;;;1.50;1.40;;;;;;;;;;5099704;28;20203;-62
2022/12/03 06:51:39;;;;;;;1.27;0.83;;;;;;;;;;5099217;28;20323;-62
2022/12/03 06:54:06;;;;;;;2.13;1.17;;;;;;;;;;5108515;28;20231;-62
2022/12/03 06:56:35;;;;;;;2.63;1.43;;;;;;;;;;5101794;28;20656;-62
2022/12/03 06:59:02;;;;;;;1.57;1.20;;;;;;;;;;5089925;28;20212;-61
2022/12/03 07:01:29;;;;;;;3.67;1.83;;;;;;;;;;5098421;28;20203;-62
2022/12/03 07:03:56;;;;;;;0.83;0.83;;;;;;;;;;5092879;28;20206;-61
2022/12/03 07:06:23;;;;;;;1.47;1.37;;;;;;;;;;5096239;28;20717;-61
2022/12/03 07:08:50;;;;;;;1.03;1.00;;;;;;;;;;5105535;28;20209;-61
2022/12/03 07:11:38;;;;;;;2.80;0.30;;;;;;;;;;5104487;28;20200;-61
2022/12/03 07:14:09;;;;;;;1.43;1.33;;;;;;;;;;5094575;28;20222;-61
2022/12/03 07:16:37;;;;;;;1.30;1.20;;;;;;;;;;5096042;28;20918;-62
2022/12/03 07:19:04;;;;;;;2.10;1.83;;;;;;;;;;5095139;28;20209;-61
2022/12/03 07:21:31;;;;;;;0.60;0.60;;;;;;;;;;5110069;28;20602;-62
2022/12/03 07:23:58;;;;;;;4.13;2.00;;;;;;;;;;5106210;28;20204;-61
2022/12/03 07:26:25;;;;;;;1.10;1.10;;;;;;;;;;5089496;28;20244;-61
2022/12/03 07:28:52;;;;;;;4.47;2.83;;;;;;;;;;5091674;28;20208;-61
2022/12/03 07:31:21;;;;;;;0.37;0.37;;;;;;;;;;5103651;28;20199;-61
2022/12/03 07:33:48;;;;;;;2.60;2.40;;;;;;;;;;5089396;28;20215;-61
2022/12/03 07:36:15;;;;;;;1.50;1.17;;;;;;;;;;5098804;28;20210;-61
2022/12/03 07:38:42;;;;;;;3.53;2.30;;;;;;;;;;5088943;28;20574;-61
2022/12/03 07:41:09;;;;;;;1.03;1.03;;;;;;;;;;5105144;28;20294;-61
2022/12/03 07:43:36;;;;;;;4.00;1.77;;;;;;;;;;5109810;28;20221;-61
2022/12/03 07:46:03;;;;;;;1.20;1.20;;;;;;;;;;5109017;27;20702;-61
2022/12/03 07:48:32;;;;;;;3.17;1.90;;;;;;;;;;5112857;28;20212;-61
2022/12/03 07:50:59;;;;;;;3.33;2.60;;;;;;;;;;5104411;28;20217;-61
2022/12/03 07:53:26;;;;;;;0.73;0.73;;;;;;;;;;5095923;28;20212;-61
2022/12/03 07:55:53;;;;;;;3.07;1.93;;;;;;;;;;5109302;28;20667;-61
2022/12/03 07:58:20;;;;;;;2.57;2.37;;;;;;;;;;5112782;28;20204;-61
2022/12/03 08:00:47;;;;;;;1.13;1.13;;;;;;;;;;5100228;28;20204;-61
2022/12/03 08:03:14;;;;;;;0.60;0.50;;;;;;;;;;5099342;28;20223;-61
2022/12/03 08:05:43;;;;;;;7.10;3.10;;;;;;;;;;5100010;28;20228;-61
2022/12/03 08:08:10;;;;;;;1.60;1.50;;;;;;;;;;5092597;28;20205;-60
2022/12/03 08:10:37;;;;;;;3.53;1.67;;;;;;;;;;5096796;28;20232;-61
2022/12/03 08:13:07;;;;;;;3.80;2.13;;;;;;;;;;5099434;28;20214;-60
2022/12/03 08:15:34;;;;;;;3.23;2.70;;;;;;;;;;5092793;28;20205;-61
2022/12/03 08:18:03;;;;;;;0.63;0.53;;;;;;;;;;5103822;28;20200;-60
2022/12/03 08:20:33;;;;;;;3.97;2.27;;;;;;;;;;5094440;28;20209;-60
2022/12/03 08:23:04;;;;;;;4.67;3.17;;;;;;;;;;5112231;28;20216;-61
2022/12/03 08:25:32;;;;;;;1.17;1.07;;;;;;;;;;5110142;28;20265;-61
2022/12/03 08:28:01;;;;;;;2.73;1.60;;;;;;;;;;5111842;28;20295;-61
2022/12/03 08:30:28;;;;;;;6.07;3.47;;;;;;;;;;5112007;27;20205;-61
2022/12/03 08:32:58;;;;;;;2.67;1.83;;;;;;;;;;5091867;28;20208;-61
2022/12/03 08:35:27;;;;;;;1.70;1.60;;;;;;;;;;5092681;28;20661;-61
2022/12/03 08:37:58;;;;;;;2.37;1.77;;;;;;;;;;5108042;28;20205;-61
2022/12/03 08:40:28;;;;;;;3.13;2.63;;;;;;;;;;5112212;28;20572;-61
2022/12/03 08:42:55;;;;;;;1.30;1.17;;;;;;;;;;5103105;28;20830;-61
2022/12/03 08:45:31;;;;;;;5.90;3.20;;;;;;;;;;5111069;28;20571;-61
2022/12/03 08:47:58;;;;;;;4.70;2.37;;;;;;;;;;5110632;28;20200;-62
2022/12/03 08:50:27;;;;;;;4.20;2.77;;;;;;;;;;5092542;28;20318;-61
2022/12/03 08:52:55;;;;;;;0.60;0.60;;;;;;;;;;5098613;28;20207;-61
2022/12/03 08:55:33;;;;;;;4.30;3.23;;;;;;;;;;5091124;28;20221;-62
2022/12/03 08:58:00;;;;;;;2.87;1.67;;;;;;;;;;5091753;28;20235;-62
2022/12/03 09:00:27;;;;;;;6.37;3.60;;;;;;;;;;5092447;28;20205;-65
2022/12/03 09:02:55;;;;;;;3.60;2.27;;;;;;;;;;5091422;28;20583;-67
2022/12/03 09:05:23;;;;;;;7.77;3.43;;;;;;;;;;5091860;28;20230;-62
2022/12/03 09:07:50;;;;;;;3.33;2.03;;;;;;;;;;5111757;28;20624;-62
2022/12/03 09:10:17;;;;;;;5.67;2.83;;;;;;;;;;5094664;28;20729;-62
2022/12/03 09:12:45;;;;;;;4.03;1.90;;;;;;;;;;5091386;28;20229;-63
2022/12/03 09:15:13;;;;;;;0.30;0.30;;;;;;;;;;5091555;28;20220;-63
2022/12/03 09:17:40;;;;;;;4.80;3.03;;;;;;;;;;5100804;28;20197;-63
2022/12/03 09:20:07;;;;;;;4.37;2.87;;;;;;;;;;5109424;28;20555;-62
2022/12/03 09:22:34;;;;;;;2.90;2.40;;;;;;;;;;5111147;28;20748;-63
2022/12/03 09:25:01;;;;;;;4.17;3.60;;;;;;;;;;5098724;28;20198;-62
2022/12/03 09:27:28;;;;;;;4.07;3.03;;;;;;;;;;5104026;28;20304;-63
2022/12/03 09:29:57;;;;;;;1.27;1.27;;;;;;;;;;5101262;28;20212;-63
2022/12/03 09:32:24;;;;;;;3.60;1.17;;;;;;;;;;5110866;28;20209;-62
2022/12/03 09:34:51;;;;;;;0.83;0.83;;;;;;;;;;5106555;28;20211;-63
2022/12/03 09:37:18;;;;;;;3.10;2.57;;;;;;;;;;5103328;28;20194;-63
2022/12/03 09:39:45;;;;;;;6.13;3.60;;;;;;;;;;5091731;28;20214;-62
2022/12/03 09:42:12;;;;;;;12.30;4.20;;;;;;;;;;5090813;28;20289;-63
2022/12/03 09:44:40;;;;;;;2.10;1.73;;;;;;;;;;5091635;28;20213;-63
2022/12/03 09:47:08;;;;;;;6.60;3.03;;;;;;;;;;5094502;28;20225;-63
2022/12/03 09:49:36;;;;;;;5.23;3.67;;;;;;;;;;5091717;28;20206;-62
2022/12/03 09:52:04;;;;;;;2.57;1.33;;;;;;;;;;5096315;28;20212;-64
2022/12/03 09:54:33;;;;;;;2.23;1.23;;;;;;;;;;5097454;28;20252;-62
2022/12/03 09:57:01;;;;;;;5.57;2.90;;;;;;;;;;5109792;28;20292;-63
2022/12/03 09:59:30;;;;;;;1.70;1.60;;;;;;;;;;5110655;28;20231;-67
2022/12/03 10:01:58;;;;;;;3.13;2.20;;;;;;;;;;5108211;28;20219;-62
2022/12/03 10:04:27;;;;;;;5.00;2.03;;;;;;;;;;5090209;28;20308;-62
2022/12/03 10:06:54;;;;;;;7.37;2.53;;;;;;;;;;5089116;28;20233;-62
2022/12/03 10:09:24;;;;;;;0.63;0.63;;;;;;;;;;5090247;28;20747;-63
2022/12/03 10:11:51;;;;;;;6.63;2.03;;;;;;;;;;5093334;28;20920;-63
2022/12/03 10:14:19;;;;;;;6.80;3.70;;;;;;;;;;5104746;28;20748;-63
2022/12/03 10:16:47;;;;;;;5.23;3.43;;;;;;;;;;5086614;28;20203;-63
2022/12/03 10:19:18;;;;;;;2.73;2.33;;;;;;;;;;5090032;28;20197;-64
2022/12/03 10:21:47;;;;;;;4.83;3.60;;;;;;;;;;5093784;28;20205;-63
2022/12/03 10:24:21;;;;;;;5.63;1.63;;;;;;;;;;5108954;28;20228;-64
2022/12/03 10:26:50;;;;;;;1.30;1.27;;;;;;;;;;5091640;28;20229;-64
2022/12/03 10:29:18;;;;;;;7.93;3.87;;;;;;;;;;5092799;28;20198;-64
2022/12/03 10:31:46;;;;;;;2.97;1.77;;;;;;;;;;5101376;28;20695;-63
2022/12/03 10:34:13;;;;;;;1.47;1.47;;;;;;;;;;5092134;28;20210;-63
2022/12/03 10:36:40;;;;;;;10.07;4.27;;;;;;;;;;5096251;28;20228;-63
2022/12/03 10:39:11;;;;;;;3.90;2.57;;;;;;;;;;5089881;28;20210;-65
2022/12/03 10:41:39;;;;;;;6.57;3.93;;;;;;;;;;5102651;28;20584;-64
2022/12/03 10:44:14;;;;;;;3.00;2.03;;;;;;;;;;5092517;28;20209;-64
2022/12/03 10:46:42;;;;;;;9.50;4.00;;;;;;;;;;5093378;28;20221;-62
2022/12/03 10:49:10;;;;;;;9.17;5.57;;;;;;;;;;5104775;28;20202;-65
2022/12/03 10:51:38;;;;;;;2.63;2.40;;;;;;;;;;5091202;28;20317;-63
2022/12/03 10:54:06;;;;;;;10.80;4.83;;;;;;;;;;5103522;28;20197;-62
2022/12/03 10:56:34;;;;;;;7.43;3.57;;;;;;;;;;5096518;28;20214;-63
2022/12/03 10:59:01;;;;;;;9.87;4.33;;;;;;;;;;5089794;28;20221;-62
2022/12/03 11:01:29;;;;;;;5.20;2.80;;;;;;;;;;5094896;28;20660;-63
2022/12/03 11:04:01;;;;;;;11.57;5.60;;;;;;;;;;5094146;28;20210;-64
2022/12/03 11:06:31;;;;;;;1.47;1.33;;;;;;;;;;5089387;28;20282;-65
2022/12/03 11:08:59;;;;;;;4.60;2.43;;;;;;;;;;5089027;28;20206;-63
2022/12/03 11:11:27;;;;;;;7.57;4.77;;;;;;;;;;5089592;28;20217;-63
2022/12/03 11:13:56;;;;;;;4.57;1.90;;;;;;;;;;5091040;28;20202;-64
2022/12/03 11:16:42;;;;;;;2.43;1.63;;;;;;;;;;5093806;28;20573;-64
2022/12/03 11:19:16;;;;;;;6.27;3.83;;;;;;;;;;5106945;28;20210;-64
2022/12/03 11:21:58;;;;;;;6.73;3.90;;;;;;;;;;5110567;28;20210;-65
2022/12/03 11:24:25;;;;;;;7.50;2.67;;;;;;;;;;5112695;28;20206;-64
2022/12/03 11:27:22;;;;;;;5.13;3.37;;;;;;;;;;5112323;28;20237;-64
2022/12/03 11:29:51;;;;;;;3.73;2.00;;;;;;;;;;5050177;28;20208;-63
2022/12/03 11:32:37;;;;;;;10.87;5.07;;;;;;;;;;5097103;28;20567;-62
2022/12/03 11:35:04;;;;;;;7.80;4.07;;;;;;;;;;5113389;28;20523;-64
2022/12/03 11:37:31;;;;;;;4.00;2.10;;;;;;;;;;5092260;28;20232;-63
2022/12/03 11:40:02;;;;;;;4.60;2.40;;;;;;;;;;5100108;28;20206;-64
2022/12/03 11:42:37;;;;;;;6.57;4.73;;;;;;;;;;5113239;28;20209;-62
2022/12/03 11:45:19;;;;;;;4.77;3.97;;;;;;;;;;5094431;28;20205;-64
2022/12/03 11:47:47;;;;;;;7.00;3.17;;;;;;;;;;5096622;28;20224;-65
2022/12/03 11:50:21;;;;;;;10.30;5.33;;;;;;;;;;5099345;27;20202;-64
2022/12/03 11:52:49;;;;;;;6.03;3.80;;;;;;;;;;5099245;28;20212;-64
2022/12/03 11:55:18;;;;;;;3.17;2.33;;;;;;;;;;5112575;28;20221;-63
2022/12/03 11:57:45;;;;;;;5.07;3.90;;;;;;;;;;5112260;28;20198;-62
2022/12/03 12:00:22;;;;;;;5.90;3.70;;;;;;;;;;5094617;28;20202;-62
2022/12/03 12:02:49;;;;;;;3.40;3.07;;;;;;;;;;5110159;27;20198;-62
2022/12/03 12:05:22;;;;;;;1.73;1.67;;;;;;;;;;5112912;28;20209;-63
2022/12/03 12:07:49;;;;;;;4.30;2.47;;;;;;;;;;5111625;27;20245;-64
2022/12/03 12:10:31;;;;;;;4.10;3.67;;;;;;;;;;5112602;28;20201;-62
2022/12/03 12:12:58;;;;;;;5.83;3.50;;;;;;;;;;5092375;28;20564;-63
2022/12/03 12:15:49;;;;;;;9.03;5.00;;;;;;;;;;5110024;28;20212;-64
2022/12/03 12:18:40;;;;;;;6.60;4.47;;;;;;;;;;5081636;28;20548;-63
2022/12/03 12:21:26;;;;;;;5.40;3.73;;;;;;;;;;5097571;28;20292;-63
2022/12/03 12:23:53;;;;;;;9.37;4.40;;;;;;;;;;5091678;28;20217;-63
2022/12/03 12:26:20;;;;;;;6.83;2.83;;;;;;;;;;5111050;28;20237;-64
2022/12/03 12:28:47;;;;;;;3.10;2.37;;;;;;;;;;5112100;28;20210;-63
2022/12/03 12:31:14;;;;;;;3.43;2.77;;;;;;;;;;5108908;28;20687;-64
2022/12/03 12:33:42;;;;;;;9.87;6.03;;;;;;;;;;5112303;28;20575;-63
2022/12/03 12:36:10;;;;;;;4.17;2.97;;;;;;;;;;5109407;28;20205;-63
2022/12/03 12:38:37;;;;;;;8.77;4.77;;;;;;;;;;5109011;28;20216;-63
2022/12/03 12:41:08;;;;;;;7.23;4.60;;;;;;;;;;5108058;28;20197;-63
2022/12/03 12:43:37;;;;;;;1.37;0.83;;;;;;;;;;5111216;28;20209;-63
2022/12/03 12:46:09;;;;;;;8.40;4.80;;;;;;;;;;5110341;28;20202;-63
2022/12/03 12:48:37;;;;;;;8.53;4.20;;;;;;;;;;5110946;28;20573;-63
2022/12/03 12:51:11;;;;;;;5.40;3.33;;;;;;;;;;5093203;28;20266;-63
2022/12/03 12:53:41;;;;;;;7.00;3.93;;;;;;;;;;5110703;28;20217;-63
2022/12/03 12:56:14;;;;;;;6.77;2.73;;;;;;;;;;5102358;28;20249;-64
2022/12/03 12:58:42;;;;;;;5.00;2.63;;;;;;;;;;5091507;28;20248;-63
2022/12/03 13:01:13;;;;;;;8.17;3.83;;;;;;;;;;5099361;28;20202;-64
2022/12/03 13:03:40;;;;;;;9.93;4.27;;;;;;;;;;5107723;28;20198;-62
2022/12/03 13:06:11;;;;;;;18.90;7.53;;;;;;;;;;5102280;28;20244;-63
2022/12/03 13:08:39;;;;;;;13.77;6.10;;;;;;;;;;5111482;28;20570;-64
2022/12/03 13:11:12;;;;;;;12.00;5.50;;;;;;;;;;5108434;28;20198;-63
2022/12/03 13:13:40;;;;;;;6.87;5.07;;;;;;;;;;5098239;28;20197;-64
2022/12/03 13:16:08;;;;;;;8.43;3.93;;;;;;;;;;5090844;28;20203;-63
2022/12/03 13:18:44;;;;;;;15.60;7.00;;;;;;;;;;5090462;28;20228;-62
2022/12/03 13:21:18;;;;;;;8.03;3.83;;;;;;;;;;5089793;28;20573;-62
2022/12/03 13:23:46;;;;;;;5.67;2.03;;;;;;;;;;5108723;28;20208;-63
2022/12/03 13:26:23;;;;;;;4.77;3.07;;;;;;;;;;5110813;28;20217;-62
2022/12/03 13:28:50;;;;;;;11.43;5.97;;;;;;;;;;5100781;28;20220;-62
2022/12/03 13:31:25;;;;;;;7.70;2.63;;;;;;;;;;5107540;28;20663;-63
2022/12/03 13:33:53;;;;;;;7.37;4.23;;;;;;;;;;5102854;28;20205;-65
2022/12/03 13:36:23;;;;;;;7.23;3.93;;;;;;;;;;5102778;28;20622;-66
2022/12/03 13:38:50;;;;;;;9.77;4.60;;;;;;;;;;5097499;28;20212;-62
2022/12/03 13:44:16;;;;;;;12.67;4.80;;;;;;;;;;5090006;28;20198;-63
2022/12/03 13:46:43;;;;;;;3.57;2.37;;;;;;;;;;5088351;28;20845;-67
2022/12/03 13:49:19;;;;;;;11.03;5.33;;;;;;;;;;5090320;28;20214;-63
2022/12/03 13:51:47;;;;;;;1.20;1.20;;;;;;;;;;5098489;28;20206;-64
2022/12/03 13:54:18;;;;;;;4.20;3.43;;;;;;;;;;5100204;28;20211;-62
2022/12/03 13:56:45;;;;;;;13.53;6.67;;;;;;;;;;5095008;28;20202;-64
2022/12/03 13:59:12;;;;;;;2.60;2.43;;;;;;;;;;5091293;28;20213;-62
2022/12/03 14:01:39;;;;;;;13.73;6.27;;;;;;;;;;5109201;28;20290;-63
2022/12/03 14:04:06;;;;;;;9.63;5.63;;;;;;;;;;5109287;28;20205;-63
2022/12/03 14:06:33;;;;;;;6.50;3.70;;;;;;;;;;5108522;28;20229;-63
2022/12/03 14:09:02;;;;;;;6.27;3.20;;;;;;;;;;5102037;28;20608;-62
2022/12/03 14:14:29;;;;;;;13.33;3.87;;;;;;;;;;5104852;28;20216;-64
2022/12/03 14:16:56;;;;;;;12.23;5.93;;;;;;;;;;5109933;27;20663;-63
2022/12/03 14:19:23;;;;;;;10.27;5.67;;;;;;;;;;5107886;28;20216;-63
2022/12/03 14:21:50;;;;;;;10.40;4.40;;;;;;;;;;5104182;28;20219;-63
2022/12/03 14:24:18;;;;;;;3.87;2.50;;;;;;;;;;5096252;28;20198;-63
2022/12/03 14:26:46;;;;;;;8.53;4.60;;;;;;;;;;5100773;28;20660;-63
2022/12/03 14:29:13;;;;;;;9.33;5.13;;;;;;;;;;5102167;28;20212;-64
2022/12/03 14:31:40;;;;;;;0.97;0.97;;;;;;;;;;5104147;28;20206;-64
2022/12/03 14:34:07;;;;;;;7.10;3.60;;;;;;;;;;5089435;28;20808;-64
2022/12/03 14:36:34;;;;;;;5.23;3.37;;;;;;;;;;5096154;28;20221;-64
2022/12/03 14:39:01;;;;;;;12.87;5.60;;;;;;;;;;5109861;28;20291;-64
2022/12/03 14:44:15;;;;;;;12.33;5.73;;;;;;;;;;5090010;28;20213;-63
2022/12/03 14:46:42;;;;;;;5.93;3.50;;;;;;;;;;5091073;28;20285;-64
2022/12/03 14:49:09;;;;;;;11.13;5.13;;;;;;;;;;5109846;28;20216;-65
2022/12/03 14:51:36;;;;;;;5.00;3.07;;;;;;;;;;5099794;28;20278;-63
2022/12/03 14:54:04;;;;;;;5.67;4.00;;;;;;;;;;5098508;28;20207;-61
2022/12/03 14:56:32;;;;;;;4.73;3.43;;;;;;;;;;5093701;28;20321;-64
2022/12/03 14:58:59;;;;;;;9.00;5.27;;;;;;;;;;5093943;28;20202;-64
2022/12/03 15:01:26;;;;;;;10.40;4.93;;;;;;;;;;5093384;28;20221;-64
2022/12/03 15:03:53;;;;;;;13.03;5.13;;;;;;;;;;5102914;28;20213;-64
2022/12/03 15:06:20;;;;;;;7.53;5.17;;;;;;;;;;5113810;27;20237;-63
2022/12/03 15:08:47;;;;;;;13.60;5.77;;;;;;;;;;5104561;28;20222;-62
2022/12/03 15:11:15;;;;;;;13.20;6.73;;;;;;;;;;5106664;28;20208;-63
2022/12/03 15:13:43;;;;;;;10.10;4.77;;;;;;;;;;5112152;28;20204;-63
2022/12/03 15:16:10;;;;;;;6.43;3.17;;;;;;;;;;5112868;28;20214;-64